EFPOEFTU

Guest
Details From EFPO - Pori
To EFTU - Turku
Flight Number -
Tags Generated
Created
Modified
Stats Distance 59 nm / 108 km
Max Altitude 0 ft / 0 m
Waypoints 2
Social Downloads 2
Likes 0
Share VATSIM

Download

Looking for another format? Having issues loading an existing format? Contact us
Advertisement - Login to hide

Notes

Generated

Route

EFPO EFTU

ID Type Via Altitude (ft/m) Position (lat/lon) Dist (leg/tot) Name
O EFPO APT - 0 / 0 61.46398 / 21.79848 - / 0 nm Pori
O EFTU APT - 0 / 0 60.51311 / 22.24015 58 / 58 nm

Altitude Profile

Advertisement - Login to hide

EFPO

Details ICAO EFPO (POR)
Name Pori
Region Finland
Timezone Europe/Helsinki (UTC+3.0)
Stats Elevation 44 ft / 13 m (AMSL)
Location 61.461200° 21.799300°
Runways 2
Magnetic Variation 8.175° E

METAR

EFPO 201120Z AUTO 23004KT 190V250 9999 SCT097/// 10/06 Q1020

Decode

TAF

Not found

Departure Runways

ID Width Length Bearing (true/mag) Surface Threshold Overrun Markings Lighting
12 197 ft / 60 m 7,692 ft / 2,345 m 125.81° / 117.64° ASPHALT 312 ft / 95 m 0 ft / 0 m PREC-APP EDGE THRESHOLD
17 98 ft / 30 m 2,623 ft / 799 m 173.89° / 165.72° ASPHALT 400 ft / 122 m 0 ft / 0 m PREC-APP
30 197 ft / 60 m 7,692 ft / 2,345 m 305.84° / 297.67° ASPHALT 1,132 ft / 345 m 0 ft / 0 m PREC-APP EDGE THRESHOLD ALSF-I
35 98 ft / 30 m 2,623 ft / 799 m 353.90° / 345.72° ASPHALT 400 ft / 122 m 0 ft / 0 m PREC-APP

EFTU

Details ICAO EFTU (TKU)
Name Turku
Region Finland
Timezone Europe/Helsinki (UTC+3.0)
Stats Elevation 161 ft / 49 m (AMSL)
Location 60.514100° 22.262800°
Runways 1
Magnetic Variation 8.111° E

METAR

EFTU 201120Z AUTO 27005KT 9999 OVC076/// 10/07 Q1020

Decode

TAF

TAF EFTU 200826Z 2009/2109 00000KT CAVOK TEMPO 2101/2106 2000 BR

Decode

Destination Runways

ID Width Length Bearing (true/mag) Surface Threshold Overrun Markings Lighting
08 197 ft / 60 m 8,210 ft / 2,502 m 84.82° / 76.71° ASPHALT 0 ft / 0 m 167 ft / 51 m PREC-APP EDGE THRESHOLD MALS
26 197 ft / 60 m 8,210 ft / 2,502 m 264.86° / 256.75° ASPHALT 0 ft / 0 m 49 ft / 15 m PREC-APP EDGE THRESHOLD CALVERT

Approach Navaids

Runway Type Ident Frequency Range Bearing (true/mag) Slope Elevation
26 DME TU 109.50 MHz 18 nm / 33 km - - 200 ft / 61 m (AMSL)
26 LOC-ILS TU 109.50 MHz 18 nm / 33 km 264.82° / 256.71 ° - 161 ft / 49 m (AMSL)
26 GS TU 109.50 MHz 10 nm / 19 km 265.68° / 257.57 ° 3.00° 161 ft / 49 m (AMSL)

Popular Alternatives